sensor_id;sensor_type;location;lat;lon;timestamp;temperature;humidity
16305;DHT22;8261;47.678;-122.174;2023-03-11T00:00:10;7.20;99.90
16305;DHT22;8261;47.678;-122.174;2023-03-11T00:02:45;7.20;99.90
16305;DHT22;8261;47.678;-122.174;2023-03-11T00:05:20;7.10;99.90
16305;DHT22;8261;47.678;-122.174;2023-03-11T00:07:52;7.10;99.90
16305;DHT22;8261;47.678;-122.174;2023-03-11T00:10:26;7.00;99.90
16305;DHT22;8261;47.678;-122.174;2023-03-11T00:12:57;7.00;99.90
16305;DHT22;8261;47.678;-122.174;2023-03-11T00:15:29;7.00;99.90
16305;DHT22;8261;47.678;-122.174;2023-03-11T00:18:00;7.10;99.90
16305;DHT22;8261;47.678;-122.174;2023-03-11T00:20:34;7.00;99.90
16305;DHT22;8261;47.678;-122.174;2023-03-11T00:23:06;7.00;99.90
16305;DHT22;8261;47.678;-122.174;2023-03-11T00:25:38;6.90;99.90
16305;DHT22;8261;47.678;-122.174;2023-03-11T00:28:09;6.90;99.90
16305;DHT22;8261;47.678;-122.174;2023-03-11T00:30:40;6.90;99.90
16305;DHT22;8261;47.678;-122.174;2023-03-11T00:33:13;6.90;99.90
16305;DHT22;8261;47.678;-122.174;2023-03-11T00:35:46;6.80;99.90
16305;DHT22;8261;47.678;-122.174;2023-03-11T00:38:17;6.80;99.90
16305;DHT22;8261;47.678;-122.174;2023-03-11T00:40:49;6.80;99.90
16305;DHT22;8261;47.678;-122.174;2023-03-11T00:43:20;6.80;99.90
16305;DHT22;8261;47.678;-122.174;2023-03-11T00:45:51;7.00;99.90
16305;DHT22;8261;47.678;-122.174;2023-03-11T00:48:22;6.90;99.90
16305;DHT22;8261;47.678;-122.174;2023-03-11T00:50:55;6.90;99.90
16305;DHT22;8261;47.678;-122.174;2023-03-11T00:53:26;6.80;99.90
16305;DHT22;8261;47.678;-122.174;2023-03-11T00:55:57;6.80;99.90
16305;DHT22;8261;47.678;-122.174;2023-03-11T00:58:29;6.90;99.90
16305;DHT22;8261;47.678;-122.174;2023-03-11T01:01:00;6.80;99.90
16305;DHT22;8261;47.678;-122.174;2023-03-11T01:03:36;6.70;99.90
16305;DHT22;8261;47.678;-122.174;2023-03-11T01:06:09;6.80;99.90
16305;DHT22;8261;47.678;-122.174;2023-03-11T01:08:41;6.70;99.90
16305;DHT22;8261;47.678;-122.174;2023-03-11T01:11:12;6.70;99.90
16305;DHT22;8261;47.678;-122.174;2023-03-11T01:13:44;6.60;99.90
16305;DHT22;8261;47.678;-122.174;2023-03-11T01:16:15;6.60;99.90
16305;DHT22;8261;47.678;-122.174;2023-03-11T01:18:46;6.60;99.90
16305;DHT22;8261;47.678;-122.174;2023-03-11T01:21:19;6.60;99.90
16305;DHT22;8261;47.678;-122.174;2023-03-11T01:23:50;6.60;99.90
16305;DHT22;8261;47.678;-122.174;2023-03-11T01:26:22;6.60;99.90
16305;DHT22;8261;47.678;-122.174;2023-03-11T01:28:53;6.50;99.90
16305;DHT22;8261;47.678;-122.174;2023-03-11T01:31:25;6.40;99.90
16305;DHT22;8261;47.678;-122.174;2023-03-11T01:33:56;6.40;99.90
16305;DHT22;8261;47.678;-122.174;2023-03-11T01:36:30;6.30;99.90
16305;DHT22;8261;47.678;-122.174;2023-03-11T01:39:01;6.30;99.90
16305;DHT22;8261;47.678;-122.174;2023-03-11T01:41:33;6.30;99.90
16305;DHT22;8261;47.678;-122.174;2023-03-11T01:44:05;6.30;99.90
16305;DHT22;8261;47.678;-122.174;2023-03-11T01:47:20;6.30;99.90
16305;DHT22;8261;47.678;-122.174;2023-03-11T01:49:30;6.30;99.90
16305;DHT22;8261;47.678;-122.174;2023-03-11T01:52:06;6.30;99.90
16305;DHT22;8261;47.678;-122.174;2023-03-11T01:54:39;6.30;99.90
16305;DHT22;8261;47.678;-122.174;2023-03-11T01:57:12;6.20;99.90
16305;DHT22;8261;47.678;-122.174;2023-03-11T01:59:48;6.20;99.90
16305;DHT22;8261;47.678;-122.174;2023-03-11T02:02:22;6.20;99.90
16305;DHT22;8261;47.678;-122.174;2023-03-11T02:04:57;6.10;99.90
16305;DHT22;8261;47.678;-122.174;2023-03-11T02:07:32;6.10;99.90
16305;DHT22;8261;47.678;-122.174;2023-03-11T02:10:08;6.10;99.90
16305;DHT22;8261;47.678;-122.174;2023-03-11T02:12:41;6.10;99.90
16305;DHT22;8261;47.678;-122.174;2023-03-11T02:15:15;6.10;99.90
16305;DHT22;8261;47.678;-122.174;2023-03-11T02:17:47;6.10;99.90
16305;DHT22;8261;47.678;-122.174;2023-03-11T02:20:24;6.10;99.90
16305;DHT22;8261;47.678;-122.174;2023-03-11T02:23:00;6.00;99.90
16305;DHT22;8261;47.678;-122.174;2023-03-11T02:25:36;6.00;99.90
16305;DHT22;8261;47.678;-122.174;2023-03-11T02:28:14;5.90;99.90
16305;DHT22;8261;47.678;-122.174;2023-03-11T02:30:50;5.90;99.90
16305;DHT22;8261;47.678;-122.174;2023-03-11T02:33:23;5.90;99.90
16305;DHT22;8261;47.678;-122.174;2023-03-11T02:35:57;5.80;99.90
16305;DHT22;8261;47.678;-122.174;2023-03-11T02:38:28;5.80;99.90
16305;DHT22;8261;47.678;-122.174;2023-03-11T02:41:00;5.90;99.90
16305;DHT22;8261;47.678;-122.174;2023-03-11T02:43:37;5.80;99.90
16305;DHT22;8261;47.678;-122.174;2023-03-11T02:46:11;5.80;99.90
16305;DHT22;8261;47.678;-122.174;2023-03-11T02:48:44;5.80;99.90
16305;DHT22;8261;47.678;-122.174;2023-03-11T02:51:15;5.80;99.90
16305;DHT22;8261;47.678;-122.174;2023-03-11T02:53:48;5.80;99.90
16305;DHT22;8261;47.678;-122.174;2023-03-11T02:56:20;5.80;99.90
16305;DHT22;8261;47.678;-122.174;2023-03-11T02:58:54;5.80;99.90
16305;DHT22;8261;47.678;-122.174;2023-03-11T03:01:24;5.80;99.90
16305;DHT22;8261;47.678;-122.174;2023-03-11T03:03:56;5.80;99.90
16305;DHT22;8261;47.678;-122.174;2023-03-11T03:06:28;5.80;99.90
16305;DHT22;8261;47.678;-122.174;2023-03-11T03:09:00;5.80;99.90
16305;DHT22;8261;47.678;-122.174;2023-03-11T03:11:31;5.80;99.90
16305;DHT22;8261;47.678;-122.174;2023-03-11T03:14:05;5.80;99.90
16305;DHT22;8261;47.678;-122.174;2023-03-11T03:16:36;5.80;99.90
16305;DHT22;8261;47.678;-122.174;2023-03-11T03:19:07;5.80;99.90
16305;DHT22;8261;47.678;-122.174;2023-03-11T03:21:38;5.80;99.90
16305;DHT22;8261;47.678;-122.174;2023-03-11T03:24:11;5.80;99.90
16305;DHT22;8261;47.678;-122.174;2023-03-11T03:26:42;5.80;99.90
16305;DHT22;8261;47.678;-122.174;2023-03-11T03:29:15;5.80;99.90
16305;DHT22;8261;47.678;-122.174;2023-03-11T03:31:46;5.70;99.90
16305;DHT22;8261;47.678;-122.174;2023-03-11T03:34:17;5.80;99.90
16305;DHT22;8261;47.678;-122.174;2023-03-11T03:36:49;5.80;99.90
16305;DHT22;8261;47.678;-122.174;2023-03-11T03:39:20;5.80;99.90
16305;DHT22;8261;47.678;-122.174;2023-03-11T03:41:51;5.70;99.90
16305;DHT22;8261;47.678;-122.174;2023-03-11T03:44:25;5.70;99.90
16305;DHT22;8261;47.678;-122.174;2023-03-11T03:46:55;5.70;99.90
16305;DHT22;8261;47.678;-122.174;2023-03-11T03:49:27;5.80;99.90
16305;DHT22;8261;47.678;-122.174;2023-03-11T03:51:58;5.70;99.90
16305;DHT22;8261;47.678;-122.174;2023-03-11T03:54:29;5.70;99.90
16305;DHT22;8261;47.678;-122.174;2023-03-11T03:57:01;5.70;99.90
16305;DHT22;8261;47.678;-122.174;2023-03-11T03:59:35;5.70;99.90
16305;DHT22;8261;47.678;-122.174;2023-03-11T04:02:06;5.70;99.90
16305;DHT22;8261;47.678;-122.174;2023-03-11T04:04:38;5.60;99.90
16305;DHT22;8261;47.678;-122.174;2023-03-11T04:07:10;5.60;99.90
16305;DHT22;8261;47.678;-122.174;2023-03-11T04:09:42;5.60;99.90
16305;DHT22;8261;47.678;-122.174;2023-03-11T04:12:15;5.60;99.90
16305;DHT22;8261;47.678;-122.174;2023-03-11T04:14:49;5.60;99.90
16305;DHT22;8261;47.678;-122.174;2023-03-11T04:17:21;5.50;99.90
16305;DHT22;8261;47.678;-122.174;2023-03-11T04:19:52;5.50;99.90
16305;DHT22;8261;47.678;-122.174;2023-03-11T04:22:23;5.50;99.90
16305;DHT22;8261;47.678;-122.174;2023-03-11T04:24:55;5.50;99.90
16305;DHT22;8261;47.678;-122.174;2023-03-11T04:27:27;5.50;99.90
16305;DHT22;8261;47.678;-122.174;2023-03-11T04:30:01;5.50;99.90
16305;DHT22;8261;47.678;-122.174;2023-03-11T04:32:33;5.50;99.90
16305;DHT22;8261;47.678;-122.174;2023-03-11T04:35:05;5.50;99.90
16305;DHT22;8261;47.678;-122.174;2023-03-11T04:37:37;5.60;99.90
16305;DHT22;8261;47.678;-122.174;2023-03-11T04:40:10;5.60;99.90
16305;DHT22;8261;47.678;-122.174;2023-03-11T04:42:42;5.60;99.90
16305;DHT22;8261;47.678;-122.174;2023-03-11T04:45:16;5.60;99.90
16305;DHT22;8261;47.678;-122.174;2023-03-11T04:47:48;5.60;99.90
16305;DHT22;8261;47.678;-122.174;2023-03-11T04:50:20;5.60;99.90
16305;DHT22;8261;47.678;-122.174;2023-03-11T04:52:52;5.60;99.90
16305;DHT22;8261;47.678;-122.174;2023-03-11T04:55:24;5.60;99.90
16305;DHT22;8261;47.678;-122.174;2023-03-11T04:57:55;5.60;99.90
16305;DHT22;8261;47.678;-122.174;2023-03-11T05:00:29;5.50;99.90
16305;DHT22;8261;47.678;-122.174;2023-03-11T05:03:01;5.50;99.90
16305;DHT22;8261;47.678;-122.174;2023-03-11T05:05:33;5.60;99.90
16305;DHT22;8261;47.678;-122.174;2023-03-11T05:08:05;5.60;99.90
16305;DHT22;8261;47.678;-122.174;2023-03-11T05:10:38;5.60;99.90
16305;DHT22;8261;47.678;-122.174;2023-03-11T05:13:09;5.50;99.90
16305;DHT22;8261;47.678;-122.174;2023-03-11T05:15:44;5.50;99.90
16305;DHT22;8261;47.678;-122.174;2023-03-11T05:18:16;5.40;99.90
16305;DHT22;8261;47.678;-122.174;2023-03-11T05:20:48;5.40;99.90
16305;DHT22;8261;47.678;-122.174;2023-03-11T05:23:21;5.30;99.90
16305;DHT22;8261;47.678;-122.174;2023-03-11T05:25:52;5.30;99.90
16305;DHT22;8261;47.678;-122.174;2023-03-11T05:28:24;5.30;99.90
16305;DHT22;8261;47.678;-122.174;2023-03-11T05:30:57;5.20;99.90
16305;DHT22;8261;47.678;-122.174;2023-03-11T05:33:31;5.20;99.90
16305;DHT22;8261;47.678;-122.174;2023-03-11T05:36:05;5.20;99.90
16305;DHT22;8261;47.678;-122.174;2023-03-11T05:38:37;5.20;99.90
16305;DHT22;8261;47.678;-122.174;2023-03-11T05:41:09;5.20;99.90
16305;DHT22;8261;47.678;-122.174;2023-03-11T05:43:40;5.20;99.90
16305;DHT22;8261;47.678;-122.174;2023-03-11T05:46:14;5.20;99.90
16305;DHT22;8261;47.678;-122.174;2023-03-11T05:48:46;5.10;99.90
16305;DHT22;8261;47.678;-122.174;2023-03-11T05:51:17;5.10;99.90
16305;DHT22;8261;47.678;-122.174;2023-03-11T05:53:49;5.10;99.90
16305;DHT22;8261;47.678;-122.174;2023-03-11T05:56:22;5.10;99.90
16305;DHT22;8261;47.678;-122.174;2023-03-11T05:58:55;5.10;99.90
16305;DHT22;8261;47.678;-122.174;2023-03-11T06:01:30;5.10;99.90
16305;DHT22;8261;47.678;-122.174;2023-03-11T06:04:03;5.00;99.90
16305;DHT22;8261;47.678;-122.174;2023-03-11T06:06:35;5.00;99.90
16305;DHT22;8261;47.678;-122.174;2023-03-11T06:09:09;5.00;99.90
16305;DHT22;8261;47.678;-122.174;2023-03-11T06:11:41;5.00;99.90
16305;DHT22;8261;47.678;-122.174;2023-03-11T06:14:14;5.00;99.90
16305;DHT22;8261;47.678;-122.174;2023-03-11T06:16:48;4.90;99.90
16305;DHT22;8261;47.678;-122.174;2023-03-11T06:19:21;5.00;99.90
16305;DHT22;8261;47.678;-122.174;2023-03-11T06:21:53;5.00;99.90
16305;DHT22;8261;47.678;-122.174;2023-03-11T06:24:25;4.90;99.90
16305;DHT22;8261;47.678;-122.174;2023-03-11T06:26:56;5.00;99.90
16305;DHT22;8261;47.678;-122.174;2023-03-11T06:29:28;5.00;99.90
16305;DHT22;8261;47.678;-122.174;2023-03-11T06:32:04;5.00;99.90
16305;DHT22;8261;47.678;-122.174;2023-03-11T06:34:36;5.00;99.90
16305;DHT22;8261;47.678;-122.174;2023-03-11T06:37:08;4.90;99.90
16305;DHT22;8261;47.678;-122.174;2023-03-11T06:39:39;4.90;99.90
16305;DHT22;8261;47.678;-122.174;2023-03-11T06:42:11;4.90;99.90
16305;DHT22;8261;47.678;-122.174;2023-03-11T06:44:42;4.90;99.90
16305;DHT22;8261;47.678;-122.174;2023-03-11T06:47:16;4.90;99.90
16305;DHT22;8261;47.678;-122.174;2023-03-11T06:49:49;4.90;99.90
16305;DHT22;8261;47.678;-122.174;2023-03-11T06:52:20;4.90;99.90
16305;DHT22;8261;47.678;-122.174;2023-03-11T06:54:52;4.90;99.90
16305;DHT22;8261;47.678;-122.174;2023-03-11T06:57:25;4.90;99.90
16305;DHT22;8261;47.678;-122.174;2023-03-11T06:59:59;4.90;99.90
16305;DHT22;8261;47.678;-122.174;2023-03-11T07:02:33;4.90;99.90
16305;DHT22;8261;47.678;-122.174;2023-03-11T07:05:06;4.90;99.90
16305;DHT22;8261;47.678;-122.174;2023-03-11T07:07:38;4.90;99.90
16305;DHT22;8261;47.678;-122.174;2023-03-11T07:10:11;4.90;99.90
16305;DHT22;8261;47.678;-122.174;2023-03-11T07:12:43;4.90;99.90
16305;DHT22;8261;47.678;-122.174;2023-03-11T07:15:16;4.90;99.90
16305;DHT22;8261;47.678;-122.174;2023-03-11T07:17:50;4.90;99.90
16305;DHT22;8261;47.678;-122.174;2023-03-11T07:20:22;4.90;99.90
16305;DHT22;8261;47.678;-122.174;2023-03-11T07:22:55;4.90;99.90
16305;DHT22;8261;47.678;-122.174;2023-03-11T07:25:29;4.90;99.90
16305;DHT22;8261;47.678;-122.174;2023-03-11T07:28:01;5.00;99.90
16305;DHT22;8261;47.678;-122.174;2023-03-11T07:30:32;5.00;99.90
16305;DHT22;8261;47.678;-122.174;2023-03-11T07:33:06;5.00;99.90
16305;DHT22;8261;47.678;-122.174;2023-03-11T07:35:39;5.00;99.90
16305;DHT22;8261;47.678;-122.174;2023-03-11T07:38:11;5.00;99.90
16305;DHT22;8261;47.678;-122.174;2023-03-11T07:40:42;4.90;99.90
16305;DHT22;8261;47.678;-122.174;2023-03-11T07:43:15;4.90;99.90
16305;DHT22;8261;47.678;-122.174;2023-03-11T07:45:47;4.80;99.90
16305;DHT22;8261;47.678;-122.174;2023-03-11T07:48:21;4.80;99.90
16305;DHT22;8261;47.678;-122.174;2023-03-11T07:51:00;4.80;99.90
16305;DHT22;8261;47.678;-122.174;2023-03-11T07:53:33;4.80;99.90
16305;DHT22;8261;47.678;-122.174;2023-03-11T07:56:07;4.90;99.90
16305;DHT22;8261;47.678;-122.174;2023-03-11T07:58:39;5.00;99.90
16305;DHT22;8261;47.678;-122.174;2023-03-11T08:01:13;5.00;99.90
16305;DHT22;8261;47.678;-122.174;2023-03-11T08:03:50;5.00;99.90
16305;DHT22;8261;47.678;-122.174;2023-03-11T08:06:26;5.00;99.90
16305;DHT22;8261;47.678;-122.174;2023-03-11T08:09:00;5.00;99.90
16305;DHT22;8261;47.678;-122.174;2023-03-11T08:11:32;5.00;99.90
16305;DHT22;8261;47.678;-122.174;2023-03-11T08:14:04;5.10;99.90
16305;DHT22;8261;47.678;-122.174;2023-03-11T08:16:37;5.10;99.90
16305;DHT22;8261;47.678;-122.174;2023-03-11T08:19:13;5.10;99.90
16305;DHT22;8261;47.678;-122.174;2023-03-11T08:21:45;5.20;99.90
16305;DHT22;8261;47.678;-122.174;2023-03-11T08:24:17;5.10;99.90
16305;DHT22;8261;47.678;-122.174;2023-03-11T08:26:49;5.10;99.90
16305;DHT22;8261;47.678;-122.174;2023-03-11T08:29:21;5.00;99.90
16305;DHT22;8261;47.678;-122.174;2023-03-11T08:31:53;5.00;99.90
16305;DHT22;8261;47.678;-122.174;2023-03-11T08:34:27;5.00;99.90
16305;DHT22;8261;47.678;-122.174;2023-03-11T08:36:58;5.00;99.90
16305;DHT22;8261;47.678;-122.174;2023-03-11T08:39:30;5.00;99.90
16305;DHT22;8261;47.678;-122.174;2023-03-11T08:42:03;5.10;99.90
16305;DHT22;8261;47.678;-122.174;2023-03-11T08:44:36;5.10;99.90
16305;DHT22;8261;47.678;-122.174;2023-03-11T08:47:11;5.10;99.90
16305;DHT22;8261;47.678;-122.174;2023-03-11T08:49:46;5.10;99.90
16305;DHT22;8261;47.678;-122.174;2023-03-11T08:52:17;5.10;99.90
16305;DHT22;8261;47.678;-122.174;2023-03-11T08:54:49;5.10;99.90
16305;DHT22;8261;47.678;-122.174;2023-03-11T08:57:21;5.10;99.90
16305;DHT22;8261;47.678;-122.174;2023-03-11T08:59:52;5.10;99.90
16305;DHT22;8261;47.678;-122.174;2023-03-11T09:02:26;5.10;99.90
16305;DHT22;8261;47.678;-122.174;2023-03-11T09:05:02;5.10;99.90
16305;DHT22;8261;47.678;-122.174;2023-03-11T09:07:34;5.10;99.90
16305;DHT22;8261;47.678;-122.174;2023-03-11T09:10:07;5.10;99.90
16305;DHT22;8261;47.678;-122.174;2023-03-11T09:12:39;5.10;99.90
16305;DHT22;8261;47.678;-122.174;2023-03-11T09:15:11;5.10;99.90
16305;DHT22;8261;47.678;-122.174;2023-03-11T09:17:42;5.10;99.90
16305;DHT22;8261;47.678;-122.174;2023-03-11T09:20:17;5.00;99.90
16305;DHT22;8261;47.678;-122.174;2023-03-11T09:22:49;5.00;99.90
16305;DHT22;8261;47.678;-122.174;2023-03-11T09:25:20;5.10;99.90
16305;DHT22;8261;47.678;-122.174;2023-03-11T09:27:52;5.00;99.90
16305;DHT22;8261;47.678;-122.174;2023-03-11T09:30:23;5.00;99.90
16305;DHT22;8261;47.678;-122.174;2023-03-11T09:32:55;5.00;99.90
16305;DHT22;8261;47.678;-122.174;2023-03-11T09:35:29;5.00;99.90
16305;DHT22;8261;47.678;-122.174;2023-03-11T09:38:00;4.90;99.90
16305;DHT22;8261;47.678;-122.174;2023-03-11T09:40:53;4.80;99.90
16305;DHT22;8261;47.678;-122.174;2023-03-11T09:43:39;4.80;99.90
16305;DHT22;8261;47.678;-122.174;2023-03-11T09:46:35;4.70;99.90
16305;DHT22;8261;47.678;-122.174;2023-03-11T09:49:16;4.70;99.90
16305;DHT22;8261;47.678;-122.174;2023-03-11T09:51:56;4.60;99.90
16305;DHT22;8261;47.678;-122.174;2023-03-11T09:54:37;4.60;99.90
16305;DHT22;8261;47.678;-122.174;2023-03-11T09:57:13;4.60;99.90
16305;DHT22;8261;47.678;-122.174;2023-03-11T09:59:47;4.60;99.90
16305;DHT22;8261;47.678;-122.174;2023-03-11T10:02:20;4.60;99.90
16305;DHT22;8261;47.678;-122.174;2023-03-11T10:04:57;4.60;99.90
16305;DHT22;8261;47.678;-122.174;2023-03-11T10:07:35;4.50;99.90
16305;DHT22;8261;47.678;-122.174;2023-03-11T10:10:13;4.60;99.90
16305;DHT22;8261;47.678;-122.174;2023-03-11T10:12:51;4.60;99.90
16305;DHT22;8261;47.678;-122.174;2023-03-11T10:15:41;4.70;99.90
16305;DHT22;8261;47.678;-122.174;2023-03-11T10:18:35;4.70;99.90
16305;DHT22;8261;47.678;-122.174;2023-03-11T10:21:19;4.80;99.90
16305;DHT22;8261;47.678;-122.174;2023-03-11T10:24:05;4.90;99.90
16305;DHT22;8261;47.678;-122.174;2023-03-11T10:26:43;4.90;99.90
16305;DHT22;8261;47.678;-122.174;2023-03-11T10:29:20;4.90;99.90
16305;DHT22;8261;47.678;-122.174;2023-03-11T10:31:59;5.00;99.90
16305;DHT22;8261;47.678;-122.174;2023-03-11T10:34:34;4.90;99.90
16305;DHT22;8261;47.678;-122.174;2023-03-11T10:37:12;4.80;99.90
16305;DHT22;8261;47.678;-122.174;2023-03-11T10:39:49;4.70;99.90
16305;DHT22;8261;47.678;-122.174;2023-03-11T10:42:24;4.50;99.90
16305;DHT22;8261;47.678;-122.174;2023-03-11T10:44:57;4.40;99.90
16305;DHT22;8261;47.678;-122.174;2023-03-11T10:47:29;4.30;99.90
16305;DHT22;8261;47.678;-122.174;2023-03-11T10:50:00;4.30;99.90
16305;DHT22;8261;47.678;-122.174;2023-03-11T10:52:41;4.30;99.90
16305;DHT22;8261;47.678;-122.174;2023-03-11T10:55:18;4.30;99.90
16305;DHT22;8261;47.678;-122.174;2023-03-11T10:57:49;4.30;99.90
16305;DHT22;8261;47.678;-122.174;2023-03-11T11:00:28;4.30;99.90
16305;DHT22;8261;47.678;-122.174;2023-03-11T11:03:00;4.30;99.90
16305;DHT22;8261;47.678;-122.174;2023-03-11T11:05:36;4.30;99.90
16305;DHT22;8261;47.678;-122.174;2023-03-11T11:08:12;4.20;99.90
16305;DHT22;8261;47.678;-122.174;2023-03-11T11:11:02;4.20;99.90
16305;DHT22;8261;47.678;-122.174;2023-03-11T11:13:34;4.20;99.90
16305;DHT22;8261;47.678;-122.174;2023-03-11T11:16:17;4.20;99.90
16305;DHT22;8261;47.678;-122.174;2023-03-11T11:18:52;4.20;99.90
16305;DHT22;8261;47.678;-122.174;2023-03-11T11:21:31;4.20;99.90
16305;DHT22;8261;47.678;-122.174;2023-03-11T11:24:13;4.20;99.90
16305;DHT22;8261;47.678;-122.174;2023-03-11T11:27:11;4.10;99.90
16305;DHT22;8261;47.678;-122.174;2023-03-11T11:29:46;4.10;99.90
16305;DHT22;8261;47.678;-122.174;2023-03-11T11:32:23;4.10;99.90
16305;DHT22;8261;47.678;-122.174;2023-03-11T11:35:01;4.10;99.90
16305;DHT22;8261;47.678;-122.174;2023-03-11T11:37:37;4.10;99.90
16305;DHT22;8261;47.678;-122.174;2023-03-11T11:40:25;4.10;99.90
16305;DHT22;8261;47.678;-122.174;2023-03-11T11:43:03;4.10;99.90
16305;DHT22;8261;47.678;-122.174;2023-03-11T11:45:38;4.00;99.90
16305;DHT22;8261;47.678;-122.174;2023-03-11T11:48:16;4.00;99.90
16305;DHT22;8261;47.678;-122.174;2023-03-11T11:50:52;4.00;99.90
16305;DHT22;8261;47.678;-122.174;2023-03-11T11:53:30;4.00;99.90
16305;DHT22;8261;47.678;-122.174;2023-03-11T11:56:05;4.00;99.90
16305;DHT22;8261;47.678;-122.174;2023-03-11T11:58:40;3.90;99.90
16305;DHT22;8261;47.678;-122.174;2023-03-11T12:01:18;3.90;99.90
16305;DHT22;8261;47.678;-122.174;2023-03-11T12:06:56;3.80;99.90
16305;DHT22;8261;47.678;-122.174;2023-03-11T12:09:33;3.80;99.90
16305;DHT22;8261;47.678;-122.174;2023-03-11T12:12:14;3.70;99.90
16305;DHT22;8261;47.678;-122.174;2023-03-11T12:14:54;3.70;99.90
16305;DHT22;8261;47.678;-122.174;2023-03-11T12:17:30;3.70;99.90
16305;DHT22;8261;47.678;-122.174;2023-03-11T12:20:07;3.70;99.90
16305;DHT22;8261;47.678;-122.174;2023-03-11T12:23:00;3.60;99.90
16305;DHT22;8261;47.678;-122.174;2023-03-11T12:25:37;3.60;99.90
16305;DHT22;8261;47.678;-122.174;2023-03-11T12:28:17;3.60;99.90
16305;DHT22;8261;47.678;-122.174;2023-03-11T12:30:55;3.60;99.90
16305;DHT22;8261;47.678;-122.174;2023-03-11T12:33:34;3.70;99.90
16305;DHT22;8261;47.678;-122.174;2023-03-11T12:36:16;3.80;99.90
16305;DHT22;8261;47.678;-122.174;2023-03-11T12:38:53;3.80;99.90
16305;DHT22;8261;47.678;-122.174;2023-03-11T12:41:33;3.80;99.90
16305;DHT22;8261;47.678;-122.174;2023-03-11T12:44:23;3.90;99.90
16305;DHT22;8261;47.678;-122.174;2023-03-11T12:47:20;3.90;99.90
16305;DHT22;8261;47.678;-122.174;2023-03-11T12:49:52;3.80;99.90
16305;DHT22;8261;47.678;-122.174;2023-03-11T12:52:27;3.90;99.90
16305;DHT22;8261;47.678;-122.174;2023-03-11T13:01:10;3.90;99.90
16305;DHT22;8261;47.678;-122.174;2023-03-11T13:04:01;3.90;99.90
16305;DHT22;8261;47.678;-122.174;2023-03-11T13:09:33;3.90;99.90
16305;DHT22;8261;47.678;-122.174;2023-03-11T13:12:37;3.90;99.90
16305;DHT22;8261;47.678;-122.174;2023-03-11T13:15:29;3.90;99.90
16305;DHT22;8261;47.678;-122.174;2023-03-11T13:18:02;3.90;99.90
16305;DHT22;8261;47.678;-122.174;2023-03-11T13:20:59;3.90;99.90
16305;DHT22;8261;47.678;-122.174;2023-03-11T13:23:32;4.00;99.90
16305;DHT22;8261;47.678;-122.174;2023-03-11T13:26:17;4.00;99.90
16305;DHT22;8261;47.678;-122.174;2023-03-11T13:29:08;4.00;99.90
16305;DHT22;8261;47.678;-122.174;2023-03-11T13:31:57;4.00;99.90
16305;DHT22;8261;47.678;-122.174;2023-03-11T13:34:38;4.00;99.90
16305;DHT22;8261;47.678;-122.174;2023-03-11T13:37:23;4.00;99.90
16305;DHT22;8261;47.678;-122.174;2023-03-11T13:40:05;4.00;99.90
16305;DHT22;8261;47.678;-122.174;2023-03-11T13:42:45;4.10;99.90
16305;DHT22;8261;47.678;-122.174;2023-03-11T13:45:26;4.00;99.90
16305;DHT22;8261;47.678;-122.174;2023-03-11T13:48:03;4.00;99.90
16305;DHT22;8261;47.678;-122.174;2023-03-11T13:50:37;4.00;99.90
16305;DHT22;8261;47.678;-122.174;2023-03-11T13:53:20;4.00;99.90
16305;DHT22;8261;47.678;-122.174;2023-03-11T13:55:53;4.00;99.90
16305;DHT22;8261;47.678;-122.174;2023-03-11T13:58:27;4.10;99.90
16305;DHT22;8261;47.678;-122.174;2023-03-11T14:01:00;4.10;99.90
16305;DHT22;8261;47.678;-122.174;2023-03-11T14:03:35;4.10;99.90
16305;DHT22;8261;47.678;-122.174;2023-03-11T14:06:13;4.10;99.90
16305;DHT22;8261;47.678;-122.174;2023-03-11T14:08:55;4.10;99.90
16305;DHT22;8261;47.678;-122.174;2023-03-11T14:11:28;4.10;99.90
16305;DHT22;8261;47.678;-122.174;2023-03-11T14:14:00;4.10;99.90
16305;DHT22;8261;47.678;-122.174;2023-03-11T14:16:33;4.00;99.90
16305;DHT22;8261;47.678;-122.174;2023-03-11T14:19:14;4.10;99.90
16305;DHT22;8261;47.678;-122.174;2023-03-11T14:21:47;4.10;99.90
16305;DHT22;8261;47.678;-122.174;2023-03-11T14:24:22;4.10;99.90
16305;DHT22;8261;47.678;-122.174;2023-03-11T14:26:57;4.10;99.90
16305;DHT22;8261;47.678;-122.174;2023-03-11T14:29:31;4.10;99.90
16305;DHT22;8261;47.678;-122.174;2023-03-11T14:32:16;4.10;99.90
16305;DHT22;8261;47.678;-122.174;2023-03-11T14:34:54;4.20;99.90
16305;DHT22;8261;47.678;-122.174;2023-03-11T14:37:30;4.30;99.90
16305;DHT22;8261;47.678;-122.174;2023-03-11T14:40:23;4.30;99.90
16305;DHT22;8261;47.678;-122.174;2023-03-11T14:42:57;4.30;99.90
16305;DHT22;8261;47.678;-122.174;2023-03-11T14:45:30;4.30;99.90
16305;DHT22;8261;47.678;-122.174;2023-03-11T14:48:07;4.40;99.90
16305;DHT22;8261;47.678;-122.174;2023-03-11T14:50:39;4.40;99.90
16305;DHT22;8261;47.678;-122.174;2023-03-11T14:53:18;4.40;99.90
16305;DHT22;8261;47.678;-122.174;2023-03-11T14:55:55;4.40;99.90
16305;DHT22;8261;47.678;-122.174;2023-03-11T14:58:29;4.40;99.90
16305;DHT22;8261;47.678;-122.174;2023-03-11T15:01:04;4.40;99.90
16305;DHT22;8261;47.678;-122.174;2023-03-11T15:03:40;4.40;99.90
16305;DHT22;8261;47.678;-122.174;2023-03-11T15:06:16;4.50;99.90
16305;DHT22;8261;47.678;-122.174;2023-03-11T15:08:50;4.50;99.90
16305;DHT22;8261;47.678;-122.174;2023-03-11T15:11:25;4.50;99.90
16305;DHT22;8261;47.678;-122.174;2023-03-11T15:14:14;4.50;99.90
16305;DHT22;8261;47.678;-122.174;2023-03-11T15:16:48;4.60;99.90
16305;DHT22;8261;47.678;-122.174;2023-03-11T15:19:37;4.60;99.90
16305;DHT22;8261;47.678;-122.174;2023-03-11T15:22:24;4.60;99.90
16305;DHT22;8261;47.678;-122.174;2023-03-11T15:24:57;4.60;99.90
16305;DHT22;8261;47.678;-122.174;2023-03-11T15:27:33;4.70;99.90
16305;DHT22;8261;47.678;-122.174;2023-03-11T15:30:19;4.70;99.90
16305;DHT22;8261;47.678;-122.174;2023-03-11T15:32:51;4.70;99.90
16305;DHT22;8261;47.678;-122.174;2023-03-11T15:35:24;4.80;99.90
16305;DHT22;8261;47.678;-122.174;2023-03-11T15:38:14;4.80;99.90
16305;DHT22;8261;47.678;-122.174;2023-03-11T15:40:53;4.80;99.90
16305;DHT22;8261;47.678;-122.174;2023-03-11T15:43:30;4.80;99.90
16305;DHT22;8261;47.678;-122.174;2023-03-11T15:46:02;4.90;99.90
16305;DHT22;8261;47.678;-122.174;2023-03-11T15:48:34;4.90;99.90
16305;DHT22;8261;47.678;-122.174;2023-03-11T15:51:15;5.00;99.90
16305;DHT22;8261;47.678;-122.174;2023-03-11T15:53:48;5.00;99.90
16305;DHT22;8261;47.678;-122.174;2023-03-11T15:56:23;5.10;99.90
16305;DHT22;8261;47.678;-122.174;2023-03-11T15:58:57;5.10;99.90
16305;DHT22;8261;47.678;-122.174;2023-03-11T16:01:30;5.20;99.90
16305;DHT22;8261;47.678;-122.174;2023-03-11T16:04:01;5.20;99.90
16305;DHT22;8261;47.678;-122.174;2023-03-11T16:06:32;5.20;99.90
16305;DHT22;8261;47.678;-122.174;2023-03-11T16:09:04;5.30;99.90
16305;DHT22;8261;47.678;-122.174;2023-03-11T16:11:36;5.30;99.90
16305;DHT22;8261;47.678;-122.174;2023-03-11T16:14:15;5.30;99.90